sensor_id;sensor_type;location;lat;lon;timestamp;pressure;altitude;pressure_sealevel;temperature;humidity
8075;BME280;4080;42.676;23.372;2023-07-20T00:01:44;94840.81;;;24.97;96.65
8075;BME280;4080;42.676;23.372;2023-07-20T00:04:13;94848.41;;;25.15;94.17
8075;BME280;4080;42.676;23.372;2023-07-20T00:06:40;94837.72;;;25.22;93.11
8075;BME280;4080;42.676;23.372;2023-07-20T00:09:08;94799.31;;;25.05;92.23
8075;BME280;4080;42.676;23.372;2023-07-20T00:11:36;94830.06;;;25.27;90.95
8075;BME280;4080;42.676;23.372;2023-07-20T00:14:03;94829.72;;;25.29;91.42
8075;BME280;4080;42.676;23.372;2023-07-20T00:16:30;94841.69;;;25.31;90.87
8075;BME280;4080;42.676;23.372;2023-07-20T00:18:56;94836.69;;;25.33;90.71
8075;BME280;4080;42.676;23.372;2023-07-20T00:21:23;94835.88;;;25.29;89.86
8075;BME280;4080;42.676;23.372;2023-07-20T00:23:50;94849.28;;;25.22;90.64
8075;BME280;4080;42.676;23.372;2023-07-20T00:26:18;94854.56;;;25.12;91.00
8075;BME280;4080;42.676;23.372;2023-07-20T00:28:44;94841.34;;;25.06;91.37
8075;BME280;4080;42.676;23.372;2023-07-20T00:31:11;94842.38;;;24.98;92.85
8075;BME280;4080;42.676;23.372;2023-07-20T00:33:38;94832.13;;;24.85;94.86
8075;BME280;4080;42.676;23.372;2023-07-20T00:36:05;94819.94;;;24.68;96.54
8075;BME280;4080;42.676;23.372;2023-07-20T00:38:31;94838.38;;;24.66;98.37
8075;BME280;4080;42.676;23.372;2023-07-20T00:40:58;94805.88;;;24.32;100.00
8075;BME280;4080;42.676;23.372;2023-07-20T00:43:26;94839.47;;;24.38;100.00
8075;BME280;4080;42.676;23.372;2023-07-20T00:45:53;94830.06;;;24.29;100.00
8075;BME280;4080;42.676;23.372;2023-07-20T00:48:20;94827.13;;;24.18;100.00
8075;BME280;4080;42.676;23.372;2023-07-20T00:50:46;94821.22;;;24.09;100.00
8075;BME280;4080;42.676;23.372;2023-07-20T00:53:14;94827.13;;;23.95;100.00
8075;BME280;4080;42.676;23.372;2023-07-20T00:55:41;94785.28;;;23.59;100.00
8075;BME280;4080;42.676;23.372;2023-07-20T00:58:08;94806.38;;;23.76;100.00
8075;BME280;4080;42.676;23.372;2023-07-20T01:00:36;94786.06;;;23.60;100.00
8075;BME280;4080;42.676;23.372;2023-07-20T01:03:03;94811.56;;;23.66;100.00
8075;BME280;4080;42.676;23.372;2023-07-20T01:05:38;94812.34;;;23.66;100.00
8075;BME280;4080;42.676;23.372;2023-07-20T01:08:11;94810.38;;;23.63;100.00
8075;BME280;4080;42.676;23.372;2023-07-20T01:10:41;94794.25;;;23.47;100.00
8075;BME280;4080;42.676;23.372;2023-07-20T01:13:13;94823.50;;;23.49;100.00
8075;BME280;4080;42.676;23.372;2023-07-20T01:15:41;94826.47;;;23.44;100.00
8075;BME280;4080;42.676;23.372;2023-07-20T01:18:08;94835.63;;;23.39;100.00
8075;BME280;4080;42.676;23.372;2023-07-20T01:20:36;94828.69;;;23.38;100.00
8075;BME280;4080;42.676;23.372;2023-07-20T01:23:28;94818.13;;;23.30;100.00
8075;BME280;4080;42.676;23.372;2023-07-20T01:26:12;94811.59;;;23.31;100.00
8075;BME280;4080;42.676;23.372;2023-07-20T01:28:57;94811.28;;;23.16;100.00
8075;BME280;4080;42.676;23.372;2023-07-20T01:31:34;94813.16;;;23.32;100.00
8075;BME280;4080;42.676;23.372;2023-07-20T01:34:03;94823.72;;;23.40;100.00
8075;BME280;4080;42.676;23.372;2023-07-20T01:36:34;94823.34;;;23.42;100.00
8075;BME280;4080;42.676;23.372;2023-07-20T01:39:02;94824.63;;;23.48;100.00
8075;BME280;4080;42.676;23.372;2023-07-20T01:41:30;94819.25;;;23.48;100.00
8075;BME280;4080;42.676;23.372;2023-07-20T01:43:57;94821.81;;;23.41;100.00
8075;BME280;4080;42.676;23.372;2023-07-20T01:46:25;94809.94;;;23.61;100.00
8075;BME280;4080;42.676;23.372;2023-07-20T01:48:55;94821.16;;;23.86;100.00
8075;BME280;4080;42.676;23.372;2023-07-20T01:51:21;94816.00;;;23.97;100.00
8075;BME280;4080;42.676;23.372;2023-07-20T01:53:48;94793.59;;;23.93;100.00
8075;BME280;4080;42.676;23.372;2023-07-20T01:56:15;94816.09;;;24.23;100.00
8075;BME280;4080;42.676;23.372;2023-07-20T01:58:42;94820.97;;;24.37;100.00
8075;BME280;4080;42.676;23.372;2023-07-20T02:01:08;94818.44;;;24.48;100.00
8075;BME280;4080;42.676;23.372;2023-07-20T02:03:35;94815.56;;;24.60;100.00
8075;BME280;4080;42.676;23.372;2023-07-20T02:06:03;94813.44;;;24.72;100.00
8075;BME280;4080;42.676;23.372;2023-07-20T02:08:30;94812.16;;;24.89;100.00
8075;BME280;4080;42.676;23.372;2023-07-20T02:10:56;94807.22;;;24.68;100.00
8075;BME280;4080;42.676;23.372;2023-07-20T02:13:23;94806.28;;;24.57;100.00
8075;BME280;4080;42.676;23.372;2023-07-20T02:15:50;94800.28;;;24.67;100.00
8075;BME280;4080;42.676;23.372;2023-07-20T02:18:17;94800.41;;;24.78;100.00
8075;BME280;4080;42.676;23.372;2023-07-20T02:20:43;94805.03;;;24.51;100.00
8075;BME280;4080;42.676;23.372;2023-07-20T02:23:12;94811.22;;;24.09;100.00
8075;BME280;4080;42.676;23.372;2023-07-20T02:25:39;94813.25;;;23.74;100.00
8075;BME280;4080;42.676;23.372;2023-07-20T02:28:07;94805.66;;;23.41;100.00
8075;BME280;4080;42.676;23.372;2023-07-20T02:30:33;94807.13;;;23.38;100.00
8075;BME280;4080;42.676;23.372;2023-07-20T02:33:00;94807.97;;;23.58;100.00
8075;BME280;4080;42.676;23.372;2023-07-20T02:35:27;94805.66;;;23.79;100.00
8075;BME280;4080;42.676;23.372;2023-07-20T02:37:53;94805.94;;;23.94;100.00
8075;BME280;4080;42.676;23.372;2023-07-20T02:40:21;94790.81;;;23.66;100.00
8075;BME280;4080;42.676;23.372;2023-07-20T02:42:48;94788.09;;;23.28;100.00
8075;BME280;4080;42.676;23.372;2023-07-20T02:45:15;94785.50;;;22.96;100.00
8075;BME280;4080;42.676;23.372;2023-07-20T02:47:42;94781.53;;;22.74;100.00
8075;BME280;4080;42.676;23.372;2023-07-20T02:50:09;94782.50;;;22.66;100.00
8075;BME280;4080;42.676;23.372;2023-07-20T02:52:39;94776.50;;;22.57;100.00
8075;BME280;4080;42.676;23.372;2023-07-20T02:55:06;94756.09;;;22.37;100.00
8075;BME280;4080;42.676;23.372;2023-07-20T02:57:34;94777.47;;;22.33;100.00
8075;BME280;4080;42.676;23.372;2023-07-20T03:00:01;94778.44;;;22.25;100.00
8075;BME280;4080;42.676;23.372;2023-07-20T03:02:29;94780.34;;;22.40;100.00
8075;BME280;4080;42.676;23.372;2023-07-20T03:04:56;94780.13;;;22.65;100.00
8075;BME280;4080;42.676;23.372;2023-07-20T03:07:26;94777.75;;;22.95;100.00
8075;BME280;4080;42.676;23.372;2023-07-20T03:09:53;94779.16;;;23.23;100.00
8075;BME280;4080;42.676;23.372;2023-07-20T03:12:20;94783.75;;;23.23;100.00
8075;BME280;4080;42.676;23.372;2023-07-20T03:14:48;94784.13;;;23.41;100.00
8075;BME280;4080;42.676;23.372;2023-07-20T03:17:15;94785.41;;;23.66;100.00
8075;BME280;4080;42.676;23.372;2023-07-20T03:19:42;94793.47;;;23.85;100.00
8075;BME280;4080;42.676;23.372;2023-07-20T03:22:09;94796.13;;;24.05;100.00
8075;BME280;4080;42.676;23.372;2023-07-20T03:24:35;94797.28;;;24.27;100.00
8075;BME280;4080;42.676;23.372;2023-07-20T03:27:02;94801.63;;;24.31;100.00
8075;BME280;4080;42.676;23.372;2023-07-20T03:29:31;94803.75;;;24.22;100.00
8075;BME280;4080;42.676;23.372;2023-07-20T03:31:59;94814.63;;;24.06;100.00
8075;BME280;4080;42.676;23.372;2023-07-20T03:34:26;94811.69;;;23.92;100.00
8075;BME280;4080;42.676;23.372;2023-07-20T03:36:53;94799.13;;;23.80;100.00
8075;BME280;4080;42.676;23.372;2023-07-20T03:39:19;94808.53;;;23.67;100.00
8075;BME280;4080;42.676;23.372;2023-07-20T03:41:46;94798.31;;;23.57;100.00
8075;BME280;4080;42.676;23.372;2023-07-20T03:44:13;94807.78;;;23.51;100.00
8075;BME280;4080;42.676;23.372;2023-07-20T03:46:40;94809.91;;;23.42;100.00
8075;BME280;4080;42.676;23.372;2023-07-20T03:49:08;94803.38;;;23.43;100.00
8075;BME280;4080;42.676;23.372;2023-07-20T03:51:35;94806.44;;;23.41;100.00
8075;BME280;4080;42.676;23.372;2023-07-20T03:54:02;94812.66;;;23.45;100.00
8075;BME280;4080;42.676;23.372;2023-07-20T03:56:29;94807.19;;;23.58;100.00
8075;BME280;4080;42.676;23.372;2023-07-20T03:58:59;94810.84;;;23.69;100.00
8075;BME280;4080;42.676;23.372;2023-07-20T04:01:26;94811.34;;;23.74;100.00
8075;BME280;4080;42.676;23.372;2023-07-20T04:03:53;94818.06;;;23.84;100.00
8075;BME280;4080;42.676;23.372;2023-07-20T04:06:21;94813.00;;;24.02;100.00
8075;BME280;4080;42.676;23.372;2023-07-20T04:08:48;94781.66;;;23.71;100.00
8075;BME280;4080;42.676;23.372;2023-07-20T04:11:14;94809.19;;;24.03;100.00
8075;BME280;4080;42.676;23.372;2023-07-20T04:13:42;94812.06;;;24.13;100.00
8075;BME280;4080;42.676;23.372;2023-07-20T04:16:08;94809.97;;;24.26;100.00
8075;BME280;4080;42.676;23.372;2023-07-20T04:18:35;94806.03;;;24.66;100.00
8075;BME280;4080;42.676;23.372;2023-07-20T04:21:02;94810.72;;;25.22;100.00
8075;BME280;4080;42.676;23.372;2023-07-20T04:23:30;94803.69;;;25.74;100.00
8075;BME280;4080;42.676;23.372;2023-07-20T04:25:57;94751.69;;;25.84;100.00
8075;BME280;4080;42.676;23.372;2023-07-20T04:28:23;94803.28;;;26.49;100.00
8075;BME280;4080;42.676;23.372;2023-07-20T04:30:50;94806.91;;;26.64;97.87
8075;BME280;4080;42.676;23.372;2023-07-20T04:33:17;94802.53;;;26.52;96.29
8075;BME280;4080;42.676;23.372;2023-07-20T04:35:51;94799.22;;;26.33;97.03
8075;BME280;4080;42.676;23.372;2023-07-20T04:38:18;94806.31;;;26.41;97.78
8075;BME280;4080;42.676;23.372;2023-07-20T04:40:47;94788.94;;;26.42;96.19
8075;BME280;4080;42.676;23.372;2023-07-20T04:43:14;94770.00;;;26.42;95.98
8075;BME280;4080;42.676;23.372;2023-07-20T04:45:41;94789.56;;;26.72;95.32
8075;BME280;4080;42.676;23.372;2023-07-20T04:48:09;94790.28;;;26.66;96.21
8075;BME280;4080;42.676;23.372;2023-07-20T04:50:37;94791.19;;;26.87;97.48
8075;BME280;4080;42.676;23.372;2023-07-20T04:53:04;94794.88;;;27.13;98.91
8075;BME280;4080;42.676;23.372;2023-07-20T04:55:30;94790.75;;;27.40;95.64
8075;BME280;4080;42.676;23.372;2023-07-20T04:58:00;94792.81;;;27.65;93.67
8075;BME280;4080;42.676;23.372;2023-07-20T05:00:27;94784.72;;;27.82;92.34
8075;BME280;4080;42.676;23.372;2023-07-20T05:02:54;94792.53;;;28.02;86.67
8075;BME280;4080;42.676;23.372;2023-07-20T05:05:20;94782.84;;;27.87;88.54
8075;BME280;4080;42.676;23.372;2023-07-20T05:07:47;94784.00;;;28.00;86.86
8075;BME280;4080;42.676;23.372;2023-07-20T05:10:14;94796.06;;;28.17;84.62
8075;BME280;4080;42.676;23.372;2023-07-20T05:12:41;94790.22;;;28.11;86.31
8075;BME280;4080;42.676;23.372;2023-07-20T05:15:10;94789.50;;;28.32;86.08
8075;BME280;4080;42.676;23.372;2023-07-20T05:17:37;94808.13;;;28.58;83.78
8075;BME280;4080;42.676;23.372;2023-07-20T05:20:06;94801.56;;;28.81;82.18
8075;BME280;4080;42.676;23.372;2023-07-20T05:22:35;94804.63;;;28.65;80.56
8075;BME280;4080;42.676;23.372;2023-07-20T05:25:02;94800.78;;;28.62;81.78
8075;BME280;4080;42.676;23.372;2023-07-20T05:27:28;94805.00;;;28.77;82.52
8075;BME280;4080;42.676;23.372;2023-07-20T05:29:55;94797.66;;;28.60;80.41
8075;BME280;4080;42.676;23.372;2023-07-20T05:32:23;94800.78;;;28.48;81.98
8075;BME280;4080;42.676;23.372;2023-07-20T05:34:51;94803.47;;;28.59;80.13
8075;BME280;4080;42.676;23.372;2023-07-20T05:37:18;94784.88;;;28.50;81.04
8075;BME280;4080;42.676;23.372;2023-07-20T05:39:45;94803.47;;;28.84;79.42
8075;BME280;4080;42.676;23.372;2023-07-20T05:42:11;94804.25;;;29.13;78.74
8075;BME280;4080;42.676;23.372;2023-07-20T05:44:39;94805.75;;;29.31;76.78
8075;BME280;4080;42.676;23.372;2023-07-20T05:47:06;94817.75;;;29.52;74.77
8075;BME280;4080;42.676;23.372;2023-07-20T05:49:34;94821.59;;;29.61;74.07
8075;BME280;4080;42.676;23.372;2023-07-20T05:52:02;94820.78;;;29.68;73.38
8075;BME280;4080;42.676;23.372;2023-07-20T05:54:28;94825.84;;;29.73;72.64
8075;BME280;4080;42.676;23.372;2023-07-20T05:56:55;94820.34;;;29.80;71.51
8075;BME280;4080;42.676;23.372;2023-07-20T05:59:22;94808.28;;;29.88;71.01
8075;BME280;4080;42.676;23.372;2023-07-20T06:01:49;94819.91;;;30.03;71.50
8075;BME280;4080;42.676;23.372;2023-07-20T06:04:16;94811.63;;;30.21;70.42
8075;BME280;4080;42.676;23.372;2023-07-20T06:06:44;94816.59;;;30.37;70.00
8075;BME280;4080;42.676;23.372;2023-07-20T06:09:11;94810.66;;;30.49;68.59
8075;BME280;4080;42.676;23.372;2023-07-20T06:11:39;94806.75;;;30.50;68.71
8075;BME280;4080;42.676;23.372;2023-07-20T06:14:05;94820.69;;;30.59;69.34
8075;BME280;4080;42.676;23.372;2023-07-20T06:16:32;94817.19;;;30.58;68.54
8075;BME280;4080;42.676;23.372;2023-07-20T06:19:00;94805.13;;;30.59;69.07
8075;BME280;4080;42.676;23.372;2023-07-20T06:21:27;94812.84;;;30.72;68.81
8075;BME280;4080;42.676;23.372;2023-07-20T06:23:55;94801.06;;;30.85;69.07
8075;BME280;4080;42.676;23.372;2023-07-20T06:26:21;94806.47;;;30.89;68.53
8075;BME280;4080;42.676;23.372;2023-07-20T06:28:48;94792.31;;;30.64;70.02
8075;BME280;4080;42.676;23.372;2023-07-20T06:31:15;94794.72;;;30.47;70.34
8075;BME280;4080;42.676;23.372;2023-07-20T06:33:41;94793.09;;;30.64;70.29
8075;BME280;4080;42.676;23.372;2023-07-20T06:36:10;94788.66;;;30.81;70.00
8075;BME280;4080;42.676;23.372;2023-07-20T06:38:36;94803.25;;;31.01;68.92
8075;BME280;4080;42.676;23.372;2023-07-20T06:41:04;94796.09;;;31.14;68.70
8075;BME280;4080;42.676;23.372;2023-07-20T06:43:31;94792.94;;;31.23;67.78
8075;BME280;4080;42.676;23.372;2023-07-20T06:45:58;94800.97;;;31.37;67.00
8075;BME280;4080;42.676;23.372;2023-07-20T06:48:24;94797.78;;;31.42;66.70
8075;BME280;4080;42.676;23.372;2023-07-20T06:50:51;94795.78;;;31.46;66.53
8075;BME280;4080;42.676;23.372;2023-07-20T06:53:19;94798.41;;;31.57;64.62
8075;BME280;4080;42.676;23.372;2023-07-20T06:55:45;94800.63;;;31.66;65.07
8075;BME280;4080;42.676;23.372;2023-07-20T06:58:13;94802.00;;;31.85;64.07
8075;BME280;4080;42.676;23.372;2023-07-20T07:00:40;94804.59;;;31.95;62.34
8075;BME280;4080;42.676;23.372;2023-07-20T07:03:07;94819.16;;;32.12;60.14
8075;BME280;4080;42.676;23.372;2023-07-20T07:05:36;94830.75;;;32.20;61.06
8075;BME280;4080;42.676;23.372;2023-07-20T07:08:03;94827.50;;;32.32;61.18
8075;BME280;4080;42.676;23.372;2023-07-20T07:10:30;94827.81;;;32.37;60.64
8075;BME280;4080;42.676;23.372;2023-07-20T07:12:57;94810.88;;;31.92;60.10
8075;BME280;4080;42.676;23.372;2023-07-20T07:15:25;94830.59;;;31.69;62.26
8075;BME280;4080;42.676;23.372;2023-07-20T07:17:52;94847.25;;;31.41;64.21
8075;BME280;4080;42.676;23.372;2023-07-20T07:20:19;94857.09;;;31.31;64.45
8075;BME280;4080;42.676;23.372;2023-07-20T07:22:47;94843.59;;;31.17;65.65
8075;BME280;4080;42.676;23.372;2023-07-20T07:25:14;94872.78;;;31.16;66.24
8075;BME280;4080;42.676;23.372;2023-07-20T07:27:41;94852.66;;;31.03;65.23
8075;BME280;4080;42.676;23.372;2023-07-20T07:30:08;94869.94;;;31.31;63.50
8075;BME280;4080;42.676;23.372;2023-07-20T07:32:37;94869.03;;;31.44;64.74
8075;BME280;4080;42.676;23.372;2023-07-20T07:35:04;94866.44;;;31.68;62.98
8075;BME280;4080;42.676;23.372;2023-07-20T07:37:31;94859.22;;;31.88;62.40
8075;BME280;4080;42.676;23.372;2023-07-20T07:39:57;94855.91;;;32.04;62.21
8075;BME280;4080;42.676;23.372;2023-07-20T07:42:24;94850.69;;;32.17;61.01
8075;BME280;4080;42.676;23.372;2023-07-20T07:44:51;94837.72;;;32.24;59.58
8075;BME280;4080;42.676;23.372;2023-07-20T07:47:17;94853.91;;;32.38;57.96
8075;BME280;4080;42.676;23.372;2023-07-20T07:49:45;94859.91;;;32.57;57.76
8075;BME280;4080;42.676;23.372;2023-07-20T07:52:12;94835.56;;;32.66;59.48
8075;BME280;4080;42.676;23.372;2023-07-20T07:54:39;94814.47;;;32.93;57.11
8075;BME280;4080;42.676;23.372;2023-07-20T07:57:06;94800.03;;;33.16;56.00
8075;BME280;4080;42.676;23.372;2023-07-20T07:59:33;94820.38;;;33.35;56.83
8075;BME280;4080;42.676;23.372;2023-07-20T08:02:02;94824.06;;;33.48;55.42
8075;BME280;4080;42.676;23.372;2023-07-20T08:04:28;94821.25;;;33.52;54.89
8075;BME280;4080;42.676;23.372;2023-07-20T08:06:56;94816.91;;;33.54;56.21
8075;BME280;4080;42.676;23.372;2023-07-20T08:09:24;94839.84;;;33.60;54.37
8075;BME280;4080;42.676;23.372;2023-07-20T08:11:51;94851.06;;;33.66;53.65
8075;BME280;4080;42.676;23.372;2023-07-20T08:14:17;94850.06;;;33.56;54.45
8075;BME280;4080;42.676;23.372;2023-07-20T08:16:44;94866.22;;;33.71;52.91
8075;BME280;4080;42.676;23.372;2023-07-20T08:19:12;94861.50;;;33.51;52.40
8075;BME280;4080;42.676;23.372;2023-07-20T08:21:39;94861.34;;;33.39;55.00
8075;BME280;4080;42.676;23.372;2023-07-20T08:24:07;94863.31;;;33.38;56.50
8075;BME280;4080;42.676;23.372;2023-07-20T08:26:34;94860.16;;;33.40;57.64
8075;BME280;4080;42.676;23.372;2023-07-20T08:29:01;94868.88;;;33.54;58.91
8075;BME280;4080;42.676;23.372;2023-07-20T08:31:27;94860.59;;;33.58;59.12
8075;BME280;4080;42.676;23.372;2023-07-20T08:33:54;94854.97;;;33.45;56.15
8075;BME280;4080;42.676;23.372;2023-07-20T08:36:22;94826.78;;;32.82;55.56
8075;BME280;4080;42.676;23.372;2023-07-20T08:38:49;94866.56;;;32.83;57.07
8075;BME280;4080;42.676;23.372;2023-07-20T08:41:18;94861.03;;;32.86;55.99
8075;BME280;4080;42.676;23.372;2023-07-20T08:43:46;94839.41;;;32.68;54.41
8075;BME280;4080;42.676;23.372;2023-07-20T08:46:14;94860.91;;;32.93;53.04
8075;BME280;4080;42.676;23.372;2023-07-20T08:48:43;94860.69;;;33.08;51.35
8075;BME280;4080;42.676;23.372;2023-07-20T08:51:11;94837.50;;;32.92;48.30
8075;BME280;4080;42.676;23.372;2023-07-20T08:53:39;94858.06;;;33.00;47.84
8075;BME280;4080;42.676;23.372;2023-07-20T08:56:06;94856.28;;;32.90;49.10
8075;BME280;4080;42.676;23.372;2023-07-20T08:58:37;94848.56;;;32.85;48.14
8075;BME280;4080;42.676;23.372;2023-07-20T09:01:06;94835.97;;;32.64;48.49
8075;BME280;4080;42.676;23.372;2023-07-20T09:03:33;94841.56;;;32.84;50.30
8075;BME280;4080;42.676;23.372;2023-07-20T09:06:00;94840.97;;;32.96;46.04
8075;BME280;4080;42.676;23.372;2023-07-20T09:08:27;94830.69;;;32.81;47.24
8075;BME280;4080;42.676;23.372;2023-07-20T09:10:53;94841.59;;;33.04;47.67
8075;BME280;4080;42.676;23.372;2023-07-20T09:13:20;94842.00;;;33.26;46.91
8075;BME280;4080;42.676;23.372;2023-07-20T09:15:53;94840.47;;;33.48;46.69
8075;BME280;4080;42.676;23.372;2023-07-20T09:18:24;94816.00;;;33.41;45.21
8075;BME280;4080;42.676;23.372;2023-07-20T09:20:51;94817.31;;;33.33;45.16
8075;BME280;4080;42.676;23.372;2023-07-20T09:23:18;94829.88;;;33.50;45.79
8075;BME280;4080;42.676;23.372;2023-07-20T09:25:47;94824.97;;;33.61;45.39
8075;BME280;4080;42.676;23.372;2023-07-20T09:28:16;94828.78;;;33.87;45.68
8075;BME280;4080;42.676;23.372;2023-07-20T09:30:43;94809.91;;;33.93;44.10
8075;BME280;4080;42.676;23.372;2023-07-20T09:33:21;94816.84;;;33.98;45.32
8075;BME280;4080;42.676;23.372;2023-07-20T09:35:48;94823.41;;;34.20;45.81
8075;BME280;4080;42.676;23.372;2023-07-20T09:38:15;94755.88;;;33.97;45.48
8075;BME280;4080;42.676;23.372;2023-07-20T09:40:42;94816.81;;;34.70;42.82
8075;BME280;4080;42.676;23.372;2023-07-20T09:43:09;94821.03;;;34.74;42.60
8075;BME280;4080;42.676;23.372;2023-07-20T09:45:39;94818.03;;;34.85;42.54
8075;BME280;4080;42.676;23.372;2023-07-20T09:48:08;94821.09;;;35.20;40.57
8075;BME280;4080;42.676;23.372;2023-07-20T09:50:41;94802.50;;;35.11;39.05
8075;BME280;4080;42.676;23.372;2023-07-20T09:53:11;94808.78;;;35.11;38.66
8075;BME280;4080;42.676;23.372;2023-07-20T09:55:40;94807.88;;;35.31;37.39
8075;BME280;4080;42.676;23.372;2023-07-20T09:58:08;94796.97;;;35.43;37.99
8075;BME280;4080;42.676;23.372;2023-07-20T10:00:36;94782.81;;;35.74;37.44
8075;BME280;4080;42.676;23.372;2023-07-20T10:03:04;94775.97;;;35.82;36.84
8075;BME280;4080;42.676;23.372;2023-07-20T10:05:33;94764.94;;;35.40;34.69
8075;BME280;4080;42.676;23.372;2023-07-20T10:08:02;94791.44;;;35.14;35.11
8075;BME280;4080;42.676;23.372;2023-07-20T10:10:31;94782.84;;;34.83;35.53
8075;BME280;4080;42.676;23.372;2023-07-20T10:13:00;94782.16;;;34.47;35.28
8075;BME280;4080;42.676;23.372;2023-07-20T10:15:30;94763.72;;;33.95;37.15
8075;BME280;4080;42.676;23.372;2023-07-20T10:18:02;94785.97;;;33.97;38.10
8075;BME280;4080;42.676;23.372;2023-07-20T10:20:32;94789.38;;;33.85;39.13
8075;BME280;4080;42.676;23.372;2023-07-20T10:23:04;94782.41;;;33.60;40.61
8075;BME280;4080;42.676;23.372;2023-07-20T10:25:31;94788.28;;;33.59;42.54
8075;BME280;4080;42.676;23.372;2023-07-20T10:27:58;94805.13;;;33.57;41.37
8075;BME280;4080;42.676;23.372;2023-07-20T10:30:26;94795.53;;;33.49;42.02
8075;BME280;4080;42.676;23.372;2023-07-20T10:32:53;94792.47;;;33.24;42.92
8075;BME280;4080;42.676;23.372;2023-07-20T10:35:20;94782.50;;;33.14;43.55
8075;BME280;4080;42.676;23.372;2023-07-20T10:37:52;94767.66;;;33.15;44.08
8075;BME280;4080;42.676;23.372;2023-07-20T10:40:30;94779.06;;;33.10;43.94
8075;BME280;4080;42.676;23.372;2023-07-20T10:43:05;94797.53;;;33.02;44.31
8075;BME280;4080;42.676;23.372;2023-07-20T10:45:48;94791.06;;;32.92;44.67
8075;BME280;4080;42.676;23.372;2023-07-20T10:48:17;94780.34;;;32.82;43.09
8075;BME280;4080;42.676;23.372;2023-07-20T10:50:45;94727.41;;;32.49;42.70
8075;BME280;4080;42.676;23.372;2023-07-20T10:53:18;94671.16;;;32.31;43.22
8075;BME280;4080;42.676;23.372;2023-07-20T10:55:46;94742.16;;;32.28;49.91
8075;BME280;4080;42.676;23.372;2023-07-20T10:58:17;94758.41;;;32.08;51.68
8075;BME280;4080;42.676;23.372;2023-07-20T11:00:57;94732.78;;;32.02;52.40
8075;BME280;4080;42.676;23.372;2023-07-20T11:03:29;94743.38;;;32.23;56.46
8075;BME280;4080;42.676;23.372;2023-07-20T11:05:57;94728.19;;;32.49;55.32
8075;BME280;4080;42.676;23.372;2023-07-20T11:08:40;94730.84;;;32.76;51.68
8075;BME280;4080;42.676;23.372;2023-07-20T11:11:26;94711.78;;;32.96;50.05
8075;BME280;4080;42.676;23.372;2023-07-20T11:13:57;94658.91;;;32.86;46.10
8075;BME280;4080;42.676;23.372;2023-07-20T11:16:43;94708.38;;;33.51;43.09
8075;BME280;4080;42.676;23.372;2023-07-20T11:19:15;94715.03;;;33.50;42.67
8075;BME280;4080;42.676;23.372;2023-07-20T11:21:43;94694.97;;;33.57;42.65
8075;BME280;4080;42.676;23.372;2023-07-20T11:24:10;94714.78;;;33.81;42.79
8075;BME280;4080;42.676;23.372;2023-07-20T11:26:46;94703.47;;;33.99;43.05
8075;BME280;4080;42.676;23.372;2023-07-20T11:29:15;94704.94;;;34.19;42.47
8075;BME280;4080;42.676;23.372;2023-07-20T11:31:43;94690.47;;;34.19;42.45
8075;BME280;4080;42.676;23.372;2023-07-20T11:34:11;94700.47;;;34.25;42.08
8075;BME280;4080;42.676;23.372;2023-07-20T11:36:40;94691.59;;;34.21;43.74
8075;BME280;4080;42.676;23.372;2023-07-20T11:39:10;94700.84;;;34.44;43.30
8075;BME280;4080;42.676;23.372;2023-07-20T11:41:37;94672.47;;;34.38;41.19
8075;BME280;4080;42.676;23.372;2023-07-20T11:44:06;94694.00;;;34.52;41.27
8075;BME280;4080;42.676;23.372;2023-07-20T11:46:33;94686.06;;;34.41;41.71
8075;BME280;4080;42.676;23.372;2023-07-20T11:49:01;94688.09;;;34.53;42.93
8075;BME280;4080;42.676;23.372;2023-07-20T11:51:29;94684.56;;;34.69;43.02
8075;BME280;4080;42.676;23.372;2023-07-20T11:53:56;94685.81;;;34.81;42.33
8075;BME280;4080;42.676;23.372;2023-07-20T11:56:24;94666.50;;;34.72;41.48
8075;BME280;4080;42.676;23.372;2023-07-20T11:58:54;94677.34;;;34.75;41.53
8075;BME280;4080;42.676;23.372;2023-07-20T12:01:26;94654.88;;;34.51;42.02
8075;BME280;4080;42.676;23.372;2023-07-20T12:03:55;94676.19;;;34.60;42.54
8075;BME280;4080;42.676;23.372;2023-07-20T12:06:23;94647.19;;;34.30;41.50
8075;BME280;4080;42.676;23.372;2023-07-20T12:08:52;94652.25;;;34.32;41.84
8075;BME280;4080;42.676;23.372;2023-07-20T12:11:31;94665.09;;;34.35;41.13
8075;BME280;4080;42.676;23.372;2023-07-20T12:13:58;94658.41;;;34.19;40.86
8075;BME280;4080;42.676;23.372;2023-07-20T12:16:29;94640.03;;;34.04;40.97
8075;BME280;4080;42.676;23.372;2023-07-20T12:19:00;94653.94;;;34.25;40.23
8075;BME280;4080;42.676;23.372;2023-07-20T12:21:27;94651.53;;;34.28;39.93
8075;BME280;4080;42.676;23.372;2023-07-20T12:23:56;94615.56;;;34.13;40.20
8075;BME280;4080;42.676;23.372;2023-07-20T12:26:24;94652.91;;;34.52;39.86
8075;BME280;4080;42.676;23.372;2023-07-20T12:28:51;94650.81;;;34.72;39.52
8075;BME280;4080;42.676;23.372;2023-07-20T12:31:18;94647.88;;;34.79;38.10
8075;BME280;4080;42.676;23.372;2023-07-20T12:33:48;94638.72;;;34.86;36.65
8075;BME280;4080;42.676;23.372;2023-07-20T12:36:14;94628.56;;;34.70;37.51
8075;BME280;4080;42.676;23.372;2023-07-20T12:38:41;94641.22;;;34.80;38.52
8075;BME280;4080;42.676;23.372;2023-07-20T12:41:10;94620.16;;;34.77;38.02
8075;BME280;4080;42.676;23.372;2023-07-20T12:43:38;94632.09;;;35.00;37.77
8075;BME280;4080;42.676;23.372;2023-07-20T12:46:05;94638.56;;;34.93;36.19
8075;BME280;4080;42.676;23.372;2023-07-20T12:48:32;94630.47;;;35.02;37.64
8075;BME280;4080;42.676;23.372;2023-07-20T12:51:00;94625.53;;;35.10;35.48
8075;BME280;4080;42.676;23.372;2023-07-20T12:53:27;94630.03;;;35.16;36.01
8075;BME280;4080;42.676;23.372;2023-07-20T12:55:53;94625.00;;;35.15;32.98
8075;BME280;4080;42.676;23.372;2023-07-20T12:58:20;94624.53;;;35.04;33.12
8075;BME280;4080;42.676;23.372;2023-07-20T13:00:46;94631.91;;;35.07;34.33
8075;BME280;4080;42.676;23.372;2023-07-20T13:03:13;94627.75;;;35.15;35.14
8075;BME280;4080;42.676;23.372;2023-07-20T13:05:41;94628.63;;;35.12;34.81
8075;BME280;4080;42.676;23.372;2023-07-20T13:08:09;94619.19;;;35.13;35.24
8075;BME280;4080;42.676;23.372;2023-07-20T13:10:37;94608.09;;;34.91;34.51
8075;BME280;4080;42.676;23.372;2023-07-20T13:13:04;94621.13;;;35.00;35.23